sensor_id;sensor_type;location;lat;lon;timestamp;temperature;humidity
15288;DHT22;7745;48.708;9.026;2022-12-18T00:00:08;-9.30;99.90
15288;DHT22;7745;48.708;9.026;2022-12-18T00:03:06;-9.50;99.90
15288;DHT22;7745;48.708;9.026;2022-12-18T00:06:14;-9.00;99.90
15288;DHT22;7745;48.708;9.026;2022-12-18T00:10:09;-9.90;99.90
15288;DHT22;7745;48.708;9.026;2022-12-18T00:28:59;-9.80;99.90
15288;DHT22;7745;48.708;9.026;2022-12-18T00:32:32;-9.60;99.90
15288;DHT22;7745;48.708;9.026;2022-12-18T00:58:42;-9.70;99.90
15288;DHT22;7745;48.708;9.026;2022-12-18T01:08:56;-9.80;99.90
15288;DHT22;7745;48.708;9.026;2022-12-18T01:11:27;-10.20;99.90
15288;DHT22;7745;48.708;9.026;2022-12-18T01:15:02;-9.80;99.90
15288;DHT22;7745;48.708;9.026;2022-12-18T01:18:15;-9.80;99.90
15288;DHT22;7745;48.708;9.026;2022-12-18T01:24:48;-10.00;99.90
15288;DHT22;7745;48.708;9.026;2022-12-18T01:31:10;-10.10;99.90
15288;DHT22;7745;48.708;9.026;2022-12-18T01:40:18;-10.70;99.90
15288;DHT22;7745;48.708;9.026;2022-12-18T01:53:21;-9.90;99.90
15288;DHT22;7745;48.708;9.026;2022-12-18T01:56:40;-10.00;99.90
15288;DHT22;7745;48.708;9.026;2022-12-18T01:59:55;-9.90;99.90
15288;DHT22;7745;48.708;9.026;2022-12-18T02:03:06;-9.90;99.90
15288;DHT22;7745;48.708;9.026;2022-12-18T02:06:12;-9.80;99.90
15288;DHT22;7745;48.708;9.026;2022-12-18T02:16:43;-9.30;99.90
15288;DHT22;7745;48.708;9.026;2022-12-18T02:30:48;-9.60;99.90
15288;DHT22;7745;48.708;9.026;2022-12-18T02:34:12;-9.60;99.90
15288;DHT22;7745;48.708;9.026;2022-12-18T02:37:20;-9.00;99.90
15288;DHT22;7745;48.708;9.026;2022-12-18T02:43:53;-10.40;99.90
15288;DHT22;7745;48.708;9.026;2022-12-18T02:54:40;-9.60;99.90
15288;DHT22;7745;48.708;9.026;2022-12-18T03:01:28;-9.70;99.90
15288;DHT22;7745;48.708;9.026;2022-12-18T03:08:02;-8.80;99.90
15288;DHT22;7745;48.708;9.026;2022-12-18T03:11:27;-9.30;99.90
15288;DHT22;7745;48.708;9.026;2022-12-18T03:28:27;-9.00;99.90
15288;DHT22;7745;48.708;9.026;2022-12-18T03:32:53;-8.90;99.90
15288;DHT22;7745;48.708;9.026;2022-12-18T03:48:52;-8.60;99.90
15288;DHT22;7745;48.708;9.026;2022-12-18T04:35:54;-8.90;99.90
15288;DHT22;7745;48.708;9.026;2022-12-18T04:46:25;-8.70;99.90
15288;DHT22;7745;48.708;9.026;2022-12-18T04:53:04;-8.40;99.90
15288;DHT22;7745;48.708;9.026;2022-12-18T04:56:20;-8.80;99.90
15288;DHT22;7745;48.708;9.026;2022-12-18T05:03:51;-8.70;99.90
15288;DHT22;7745;48.708;9.026;2022-12-18T05:06:15;-8.50;99.90
15288;DHT22;7745;48.708;9.026;2022-12-18T05:40:06;-8.70;99.90
15288;DHT22;7745;48.708;9.026;2022-12-18T05:53:28;-8.60;99.90
15288;DHT22;7745;48.708;9.026;2022-12-18T06:07:00;-9.40;99.90
15288;DHT22;7745;48.708;9.026;2022-12-18T06:10:02;-9.50;99.90
15288;DHT22;7745;48.708;9.026;2022-12-18T06:17:01;-9.50;99.90
15288;DHT22;7745;48.708;9.026;2022-12-18T07:06:23;-9.20;99.90
15288;DHT22;7745;48.708;9.026;2022-12-18T07:09:12;-9.90;99.90
15288;DHT22;7745;48.708;9.026;2022-12-18T07:11:42;-9.90;99.90
15288;DHT22;7745;48.708;9.026;2022-12-18T07:14:10;-9.40;99.90
15288;DHT22;7745;48.708;9.026;2022-12-18T07:16:37;-9.80;99.90
15288;DHT22;7745;48.708;9.026;2022-12-18T07:19:04;-9.70;99.90
15288;DHT22;7745;48.708;9.026;2022-12-18T07:21:32;-9.70;99.90
15288;DHT22;7745;48.708;9.026;2022-12-18T07:23:59;-9.60;99.90
15288;DHT22;7745;48.708;9.026;2022-12-18T07:26:26;-9.60;99.90
15288;DHT22;7745;48.708;9.026;2022-12-18T07:28:58;-9.50;99.90
15288;DHT22;7745;48.708;9.026;2022-12-18T07:31:26;-9.20;99.90
15288;DHT22;7745;48.708;9.026;2022-12-18T07:33:53;-9.30;99.90
15288;DHT22;7745;48.708;9.026;2022-12-18T07:36:20;-9.20;99.90
15288;DHT22;7745;48.708;9.026;2022-12-18T07:38:50;-8.70;99.90
15288;DHT22;7745;48.708;9.026;2022-12-18T07:41:18;-9.10;99.90
15288;DHT22;7745;48.708;9.026;2022-12-18T07:43:48;-9.00;99.90
15288;DHT22;7745;48.708;9.026;2022-12-18T07:46:16;-8.90;99.90
15288;DHT22;7745;48.708;9.026;2022-12-18T07:48:43;-8.80;99.90
15288;DHT22;7745;48.708;9.026;2022-12-18T07:51:12;-8.20;99.90
15288;DHT22;7745;48.708;9.026;2022-12-18T07:53:39;-8.50;99.90
15288;DHT22;7745;48.708;9.026;2022-12-18T07:56:10;-8.40;99.90
15288;DHT22;7745;48.708;9.026;2022-12-18T07:58:37;-8.30;99.90
15288;DHT22;7745;48.708;9.026;2022-12-18T08:01:05;-8.20;99.90
15288;DHT22;7745;48.708;9.026;2022-12-18T08:03:32;-8.50;99.90
15288;DHT22;7745;48.708;9.026;2022-12-18T08:06:00;-8.10;99.90
15288;DHT22;7745;48.708;9.026;2022-12-18T08:08:27;-8.10;99.90
15288;DHT22;7745;48.708;9.026;2022-12-18T08:10:54;-8.10;99.90
15288;DHT22;7745;48.708;9.026;2022-12-18T08:13:23;-8.00;99.90
15288;DHT22;7745;48.708;9.026;2022-12-18T08:15:56;-7.90;99.90
15288;DHT22;7745;48.708;9.026;2022-12-18T08:18:25;-7.80;99.90
15288;DHT22;7745;48.708;9.026;2022-12-18T08:20:52;-7.30;99.90
15288;DHT22;7745;48.708;9.026;2022-12-18T08:26:45;-7.40;99.90
15288;DHT22;7745;48.708;9.026;2022-12-18T08:29:28;-7.80;99.90
15288;DHT22;7745;48.708;9.026;2022-12-18T08:32:06;-7.70;99.90
15288;DHT22;7745;48.708;9.026;2022-12-18T08:37:56;-8.00;99.90
15288;DHT22;7745;48.708;9.026;2022-12-18T08:43:43;-7.50;99.90
15288;DHT22;7745;48.708;9.026;2022-12-18T08:46:47;-7.40;99.90
15288;DHT22;7745;48.708;9.026;2022-12-18T08:49:28;-6.80;99.90
15288;DHT22;7745;48.708;9.026;2022-12-18T08:51:55;-7.10;99.90
15288;DHT22;7745;48.708;9.026;2022-12-18T08:54:23;-6.90;99.90
15288;DHT22;7745;48.708;9.026;2022-12-18T08:56:50;-6.80;99.90
15288;DHT22;7745;48.708;9.026;2022-12-18T08:59:16;-6.70;99.90
15288;DHT22;7745;48.708;9.026;2022-12-18T09:01:46;-6.60;99.90
15288;DHT22;7745;48.708;9.026;2022-12-18T09:04:13;-6.40;99.90
15288;DHT22;7745;48.708;9.026;2022-12-18T09:06:40;-6.40;99.90
15288;DHT22;7745;48.708;9.026;2022-12-18T09:09:08;-6.30;99.90
15288;DHT22;7745;48.708;9.026;2022-12-18T09:11:36;-6.20;99.90
15288;DHT22;7745;48.708;9.026;2022-12-18T09:14:03;-6.10;99.90
15288;DHT22;7745;48.708;9.026;2022-12-18T09:16:30;-6.00;99.90
15288;DHT22;7745;48.708;9.026;2022-12-18T09:19:04;-5.90;99.90
15288;DHT22;7745;48.708;9.026;2022-12-18T09:21:37;-6.10;99.90
15288;DHT22;7745;48.708;9.026;2022-12-18T09:24:05;-5.40;99.90
15288;DHT22;7745;48.708;9.026;2022-12-18T09:26:32;-5.70;99.90
15288;DHT22;7745;48.708;9.026;2022-12-18T09:28:59;-5.70;99.90
15288;DHT22;7745;48.708;9.026;2022-12-18T09:31:26;-5.60;99.90
15288;DHT22;7745;48.708;9.026;2022-12-18T09:33:54;-5.50;99.90
15288;DHT22;7745;48.708;9.026;2022-12-18T09:36:25;-5.50;99.90
15288;DHT22;7745;48.708;9.026;2022-12-18T09:38:55;-5.70;99.90
15288;DHT22;7745;48.708;9.026;2022-12-18T09:41:40;-5.30;99.90
15288;DHT22;7745;48.708;9.026;2022-12-18T09:44:16;-5.30;99.90
15288;DHT22;7745;48.708;9.026;2022-12-18T09:46:48;-5.20;99.90
15288;DHT22;7745;48.708;9.026;2022-12-18T09:49:29;-5.10;99.90
15288;DHT22;7745;48.708;9.026;2022-12-18T09:52:45;-4.80;99.90
15288;DHT22;7745;48.708;9.026;2022-12-18T10:04:49;-4.30;99.90
15288;DHT22;7745;48.708;9.026;2022-12-18T10:07:39;-4.20;99.90
15288;DHT22;7745;48.708;9.026;2022-12-18T10:10:15;-4.10;99.90
15288;DHT22;7745;48.708;9.026;2022-12-18T10:13:22;-4.30;99.90
15288;DHT22;7745;48.708;9.026;2022-12-18T10:23:17;-4.90;99.90
15288;DHT22;7745;48.708;9.026;2022-12-18T10:27:04;-3.70;99.90
15288;DHT22;7745;48.708;9.026;2022-12-18T10:28:59;-3.90;99.90
15288;DHT22;7745;48.708;9.026;2022-12-18T10:31:29;-4.10;99.90
15288;DHT22;7745;48.708;9.026;2022-12-18T10:34:07;-3.70;99.90
15288;DHT22;7745;48.708;9.026;2022-12-18T10:36:39;-3.90;99.90
15288;DHT22;7745;48.708;9.026;2022-12-18T10:39:28;-3.40;99.90
15288;DHT22;7745;48.708;9.026;2022-12-18T10:42:13;-3.60;99.90
15288;DHT22;7745;48.708;9.026;2022-12-18T10:48:20;-3.50;99.90
15288;DHT22;7745;48.708;9.026;2022-12-18T10:58:21;-2.70;99.90
15288;DHT22;7745;48.708;9.026;2022-12-18T11:01:09;-2.80;99.90
15288;DHT22;7745;48.708;9.026;2022-12-18T11:03:46;-2.90;99.90
15288;DHT22;7745;48.708;9.026;2022-12-18T11:06:52;-3.10;99.90
15288;DHT22;7745;48.708;9.026;2022-12-18T11:10:14;-2.90;99.90
15288;DHT22;7745;48.708;9.026;2022-12-18T11:12:58;-2.90;99.90
15288;DHT22;7745;48.708;9.026;2022-12-18T11:15:48;-2.90;99.90
15288;DHT22;7745;48.708;9.026;2022-12-18T11:18:20;-3.20;99.90
15288;DHT22;7745;48.708;9.026;2022-12-18T11:20:55;-2.90;99.90
15288;DHT22;7745;48.708;9.026;2022-12-18T11:23:23;-2.90;99.90
15288;DHT22;7745;48.708;9.026;2022-12-18T11:26:12;-2.90;99.90
15288;DHT22;7745;48.708;9.026;2022-12-18T11:28:41;-2.50;99.90
15288;DHT22;7745;48.708;9.026;2022-12-18T11:31:20;-2.30;99.90
15288;DHT22;7745;48.708;9.026;2022-12-18T11:34:00;-2.40;99.90
15288;DHT22;7745;48.708;9.026;2022-12-18T11:36:44;-2.70;99.90
15288;DHT22;7745;48.708;9.026;2022-12-18T11:39:16;-2.50;99.90
15288;DHT22;7745;48.708;9.026;2022-12-18T11:41:49;-2.30;99.90
15288;DHT22;7745;48.708;9.026;2022-12-18T11:44:42;-2.30;99.90
15288;DHT22;7745;48.708;9.026;2022-12-18T11:47:18;-2.60;99.90
15288;DHT22;7745;48.708;9.026;2022-12-18T11:50:10;-2.50;99.90
15288;DHT22;7745;48.708;9.026;2022-12-18T11:52:43;-2.50;99.90
15288;DHT22;7745;48.708;9.026;2022-12-18T11:55:12;-2.40;99.90
15288;DHT22;7745;48.708;9.026;2022-12-18T11:57:48;-2.40;99.90
15288;DHT22;7745;48.708;9.026;2022-12-18T12:00:20;-2.50;99.90
15288;DHT22;7745;48.708;9.026;2022-12-18T12:03:12;-2.50;99.90
15288;DHT22;7745;48.708;9.026;2022-12-18T12:06:03;-2.30;99.90
15288;DHT22;7745;48.708;9.026;2022-12-18T12:08:59;-2.20;99.90
15288;DHT22;7745;48.708;9.026;2022-12-18T12:11:35;-2.50;99.90
15288;DHT22;7745;48.708;9.026;2022-12-18T12:14:40;-2.30;99.90
15288;DHT22;7745;48.708;9.026;2022-12-18T12:17:19;-2.60;99.90
15288;DHT22;7745;48.708;9.026;2022-12-18T12:19:56;-2.60;99.90
15288;DHT22;7745;48.708;9.026;2022-12-18T12:22:40;-2.70;99.90
15288;DHT22;7745;48.708;9.026;2022-12-18T12:25:42;-2.60;99.90
15288;DHT22;7745;48.708;9.026;2022-12-18T12:42:46;-2.40;99.90
15288;DHT22;7745;48.708;9.026;2022-12-18T12:45:37;-2.10;99.90
15288;DHT22;7745;48.708;9.026;2022-12-18T12:48:40;-2.30;99.90
15288;DHT22;7745;48.708;9.026;2022-12-18T12:51:44;-2.30;99.90
15288;DHT22;7745;48.708;9.026;2022-12-18T12:54:27;-2.20;99.90
15288;DHT22;7745;48.708;9.026;2022-12-18T12:57:13;-2.50;99.90
15288;DHT22;7745;48.708;9.026;2022-12-18T12:59:51;-2.30;99.90
15288;DHT22;7745;48.708;9.026;2022-12-18T13:02:29;-1.60;99.90
15288;DHT22;7745;48.708;9.026;2022-12-18T13:05:18;-2.30;99.90
15288;DHT22;7745;48.708;9.026;2022-12-18T13:07:52;-1.80;99.90
15288;DHT22;7745;48.708;9.026;2022-12-18T13:10:32;-2.20;99.90
15288;DHT22;7745;48.708;9.026;2022-12-18T13:13:01;-2.20;99.90
15288;DHT22;7745;48.708;9.026;2022-12-18T13:15:36;-1.80;99.90
15288;DHT22;7745;48.708;9.026;2022-12-18T13:18:10;-1.50;99.90
15288;DHT22;7745;48.708;9.026;2022-12-18T13:20:40;-2.10;99.90
15288;DHT22;7745;48.708;9.026;2022-12-18T13:23:33;-2.10;99.90
15288;DHT22;7745;48.708;9.026;2022-12-18T13:26:30;-2.10;99.90
15288;DHT22;7745;48.708;9.026;2022-12-18T13:28:59;-2.10;99.90
15288;DHT22;7745;48.708;9.026;2022-12-18T13:32:16;-1.80;99.90
15288;DHT22;7745;48.708;9.026;2022-12-18T13:34:49;-2.10;99.90
15288;DHT22;7745;48.708;9.026;2022-12-18T13:37:54;-2.10;99.90
15288;DHT22;7745;48.708;9.026;2022-12-18T13:40:55;-1.70;99.90
15288;DHT22;7745;48.708;9.026;2022-12-18T13:46:46;-2.10;99.90
15288;DHT22;7745;48.708;9.026;2022-12-18T13:49:22;-1.60;99.90
15288;DHT22;7745;48.708;9.026;2022-12-18T13:51:51;-1.30;99.90
15288;DHT22;7745;48.708;9.026;2022-12-18T13:54:21;-2.10;99.90
15288;DHT22;7745;48.708;9.026;2022-12-18T13:56:59;-1.80;99.90
15288;DHT22;7745;48.708;9.026;2022-12-18T13:59:35;-2.10;99.90
15288;DHT22;7745;48.708;9.026;2022-12-18T14:02:12;-1.70;99.90
15288;DHT22;7745;48.708;9.026;2022-12-18T14:04:45;-1.90;99.90
15288;DHT22;7745;48.708;9.026;2022-12-18T14:07:19;-2.10;99.90
15288;DHT22;7745;48.708;9.026;2022-12-18T14:09:50;-2.10;99.90
15288;DHT22;7745;48.708;9.026;2022-12-18T14:12:21;-2.20;99.90
15288;DHT22;7745;48.708;9.026;2022-12-18T14:15:13;-1.70;99.90
15288;DHT22;7745;48.708;9.026;2022-12-18T14:17:52;-2.20;99.90
15288;DHT22;7745;48.708;9.026;2022-12-18T14:20:28;-2.30;99.90
15288;DHT22;7745;48.708;9.026;2022-12-18T14:22:58;-2.00;99.90
15288;DHT22;7745;48.708;9.026;2022-12-18T14:25:27;-2.00;99.90
15288;DHT22;7745;48.708;9.026;2022-12-18T14:28:07;-2.40;99.90
15288;DHT22;7745;48.708;9.026;2022-12-18T14:30:41;-1.90;99.90
15288;DHT22;7745;48.708;9.026;2022-12-18T14:33:14;-2.10;99.90
15288;DHT22;7745;48.708;9.026;2022-12-18T14:35:55;-2.20;99.90
15288;DHT22;7745;48.708;9.026;2022-12-18T14:38:27;-2.10;99.90
15288;DHT22;7745;48.708;9.026;2022-12-18T14:41:00;-2.20;99.90
15288;DHT22;7745;48.708;9.026;2022-12-18T14:43:33;-2.50;99.90
15288;DHT22;7745;48.708;9.026;2022-12-18T14:46:03;-2.40;99.90
15288;DHT22;7745;48.708;9.026;2022-12-18T14:48:36;-2.60;99.90
15288;DHT22;7745;48.708;9.026;2022-12-18T14:51:17;-2.60;99.90
15288;DHT22;7745;48.708;9.026;2022-12-18T14:53:47;-2.70;99.90
15288;DHT22;7745;48.708;9.026;2022-12-18T14:56:23;-2.80;99.90
15288;DHT22;7745;48.708;9.026;2022-12-18T14:58:57;-2.80;99.90
15288;DHT22;7745;48.708;9.026;2022-12-18T15:01:29;-2.70;99.90
15288;DHT22;7745;48.708;9.026;2022-12-18T15:03:58;-2.90;99.90
15288;DHT22;7745;48.708;9.026;2022-12-18T15:06:37;-2.80;99.90
15288;DHT22;7745;48.708;9.026;2022-12-18T15:09:22;-2.70;99.90
15288;DHT22;7745;48.708;9.026;2022-12-18T15:11:55;-3.00;99.90
15288;DHT22;7745;48.708;9.026;2022-12-18T15:14:34;-2.80;99.90
15288;DHT22;7745;48.708;9.026;2022-12-18T15:17:05;-3.20;99.90
15288;DHT22;7745;48.708;9.026;2022-12-18T15:19:41;-3.20;99.90
15288;DHT22;7745;48.708;9.026;2022-12-18T15:22:28;-2.70;99.90
15288;DHT22;7745;48.708;9.026;2022-12-18T15:24:57;-3.40;99.90
15288;DHT22;7745;48.708;9.026;2022-12-18T15:27:30;-3.20;99.90
15288;DHT22;7745;48.708;9.026;2022-12-18T15:30:18;-3.20;99.90
15288;DHT22;7745;48.708;9.026;2022-12-18T15:32:47;-3.30;99.90
15288;DHT22;7745;48.708;9.026;2022-12-18T15:35:18;-3.30;99.90
15288;DHT22;7745;48.708;9.026;2022-12-18T15:37:46;-3.10;99.90
15288;DHT22;7745;48.708;9.026;2022-12-18T15:40:14;-3.40;99.90
15288;DHT22;7745;48.708;9.026;2022-12-18T15:42:42;-3.40;99.90
15288;DHT22;7745;48.708;9.026;2022-12-18T15:45:26;-3.50;99.90
15288;DHT22;7745;48.708;9.026;2022-12-18T15:47:53;-3.50;99.90
15288;DHT22;7745;48.708;9.026;2022-12-18T15:50:25;-3.30;99.90
15288;DHT22;7745;48.708;9.026;2022-12-18T15:52:54;-3.50;99.90
15288;DHT22;7745;48.708;9.026;2022-12-18T15:55:23;-3.60;99.90
15288;DHT22;7745;48.708;9.026;2022-12-18T15:58:09;-3.60;99.90
15288;DHT22;7745;48.708;9.026;2022-12-18T16:00:38;-3.60;99.90
15288;DHT22;7745;48.708;9.026;2022-12-18T16:03:05;-3.70;99.90
15288;DHT22;7745;48.708;9.026;2022-12-18T16:05:33;-3.70;99.90
15288;DHT22;7745;48.708;9.026;2022-12-18T16:08:01;-3.20;99.90
15288;DHT22;7745;48.708;9.026;2022-12-18T16:10:31;-3.70;99.90
15288;DHT22;7745;48.708;9.026;2022-12-18T16:12:58;-3.70;99.90
15288;DHT22;7745;48.708;9.026;2022-12-18T16:15:25;-3.70;99.90
15288;DHT22;7745;48.708;9.026;2022-12-18T16:17:52;-3.80;99.90
15288;DHT22;7745;48.708;9.026;2022-12-18T16:20:21;-3.70;99.90
15288;DHT22;7745;48.708;9.026;2022-12-18T16:22:48;-3.80;99.90
15288;DHT22;7745;48.708;9.026;2022-12-18T16:25:19;-3.70;99.90
15288;DHT22;7745;48.708;9.026;2022-12-18T16:27:47;-3.70;99.90
15288;DHT22;7745;48.708;9.026;2022-12-18T16:30:16;-3.70;99.90
15288;DHT22;7745;48.708;9.026;2022-12-18T16:32:43;-3.70;99.90
15288;DHT22;7745;48.708;9.026;2022-12-18T16:35:11;-3.70;99.90
15288;DHT22;7745;48.708;9.026;2022-12-18T16:37:39;-3.70;99.90
15288;DHT22;7745;48.708;9.026;2022-12-18T16:40:07;-3.40;99.90
15288;DHT22;7745;48.708;9.026;2022-12-18T16:42:38;-3.70;99.90
15288;DHT22;7745;48.708;9.026;2022-12-18T16:45:06;-3.30;99.90
15288;DHT22;7745;48.708;9.026;2022-12-18T16:47:34;-3.70;99.90
15288;DHT22;7745;48.708;9.026;2022-12-18T16:50:00;-3.70;99.90
15288;DHT22;7745;48.708;9.026;2022-12-18T16:52:27;-3.70;99.90
15288;DHT22;7745;48.708;9.026;2022-12-18T16:54:54;-3.60;99.90
15288;DHT22;7745;48.708;9.026;2022-12-18T16:57:22;-3.60;99.90
15288;DHT22;7745;48.708;9.026;2022-12-18T16:59:50;-3.60;99.90
15288;DHT22;7745;48.708;9.026;2022-12-18T17:02:18;-3.60;99.90
15288;DHT22;7745;48.708;9.026;2022-12-18T17:04:46;-3.60;99.90
15288;DHT22;7745;48.708;9.026;2022-12-18T17:07:15;-2.90;99.90
15288;DHT22;7745;48.708;9.026;2022-12-18T17:09:42;-3.50;99.90
15288;DHT22;7745;48.708;9.026;2022-12-18T17:12:09;-3.10;99.90
15288;DHT22;7745;48.708;9.026;2022-12-18T17:14:39;-3.50;99.90
15288;DHT22;7745;48.708;9.026;2022-12-18T17:17:07;-3.50;99.90
15288;DHT22;7745;48.708;9.026;2022-12-18T17:19:34;-3.20;99.90
15288;DHT22;7745;48.708;9.026;2022-12-18T17:22:01;-3.00;99.90
15288;DHT22;7745;48.708;9.026;2022-12-18T17:24:29;-3.40;99.90
15288;DHT22;7745;48.708;9.026;2022-12-18T17:26:56;-3.30;99.90
15288;DHT22;7745;48.708;9.026;2022-12-18T17:29:23;-3.30;99.90
15288;DHT22;7745;48.708;9.026;2022-12-18T17:31:49;-3.30;99.90
15288;DHT22;7745;48.708;9.026;2022-12-18T17:34:18;-3.30;99.90
15288;DHT22;7745;48.708;9.026;2022-12-18T17:36:46;-3.30;99.90
15288;DHT22;7745;48.708;9.026;2022-12-18T17:39:17;-3.30;99.90
15288;DHT22;7745;48.708;9.026;2022-12-18T17:41:45;-3.30;99.90
15288;DHT22;7745;48.708;9.026;2022-12-18T17:44:12;-2.80;99.90
15288;DHT22;7745;48.708;9.026;2022-12-18T17:46:40;-3.30;99.90
15288;DHT22;7745;48.708;9.026;2022-12-18T17:49:07;-3.20;99.90
15288;DHT22;7745;48.708;9.026;2022-12-18T17:51:35;-3.20;99.90
15288;DHT22;7745;48.708;9.026;2022-12-18T17:54:02;-3.30;99.90
15288;DHT22;7745;48.708;9.026;2022-12-18T17:56:30;-3.20;99.90
15288;DHT22;7745;48.708;9.026;2022-12-18T17:58:57;-3.20;99.90
15288;DHT22;7745;48.708;9.026;2022-12-18T18:01:24;-3.20;99.90
15288;DHT22;7745;48.708;9.026;2022-12-18T18:03:52;-3.20;99.90
15288;DHT22;7745;48.708;9.026;2022-12-18T18:06:20;-3.20;99.90
15288;DHT22;7745;48.708;9.026;2022-12-18T18:08:49;-3.20;99.90
15288;DHT22;7745;48.708;9.026;2022-12-18T18:11:18;-2.70;99.90
15288;DHT22;7745;48.708;9.026;2022-12-18T18:14:06;-3.10;99.90
15288;DHT22;7745;48.708;9.026;2022-12-18T18:16:35;-3.10;99.90
15288;DHT22;7745;48.708;9.026;2022-12-18T18:19:04;-3.10;99.90
15288;DHT22;7745;48.708;9.026;2022-12-18T18:21:32;-3.10;99.90
15288;DHT22;7745;48.708;9.026;2022-12-18T18:24:02;-2.70;99.90
15288;DHT22;7745;48.708;9.026;2022-12-18T18:26:30;-3.10;99.90
15288;DHT22;7745;48.708;9.026;2022-12-18T18:28:58;-3.10;99.90
15288;DHT22;7745;48.708;9.026;2022-12-18T18:31:26;-3.10;99.90
15288;DHT22;7745;48.708;9.026;2022-12-18T18:33:53;-3.00;99.90
15288;DHT22;7745;48.708;9.026;2022-12-18T18:36:21;-2.50;99.90
15288;DHT22;7745;48.708;9.026;2022-12-18T18:38:48;-3.00;99.90
15288;DHT22;7745;48.708;9.026;2022-12-18T18:41:17;-3.00;99.90
15288;DHT22;7745;48.708;9.026;2022-12-18T18:43:44;-2.80;99.90
15288;DHT22;7745;48.708;9.026;2022-12-18T18:46:13;-3.00;99.90
15288;DHT22;7745;48.708;9.026;2022-12-18T18:48:42;-2.80;99.90
15288;DHT22;7745;48.708;9.026;2022-12-18T18:51:34;-3.00;99.90
15288;DHT22;7745;48.708;9.026;2022-12-18T18:54:04;-3.00;99.90
15288;DHT22;7745;48.708;9.026;2022-12-18T18:56:39;-3.00;99.90
15288;DHT22;7745;48.708;9.026;2022-12-18T18:59:06;-2.60;99.90
15288;DHT22;7745;48.708;9.026;2022-12-18T19:01:33;-2.50;99.90
15288;DHT22;7745;48.708;9.026;2022-12-18T19:04:00;-2.90;99.90
15288;DHT22;7745;48.708;9.026;2022-12-18T19:06:27;-2.90;99.90
15288;DHT22;7745;48.708;9.026;2022-12-18T19:08:55;-2.90;99.90
15288;DHT22;7745;48.708;9.026;2022-12-18T19:11:23;-2.70;99.90
15288;DHT22;7745;48.708;9.026;2022-12-18T19:14:11;-2.90;99.90
15288;DHT22;7745;48.708;9.026;2022-12-18T19:16:42;-2.90;99.90
15288;DHT22;7745;48.708;9.026;2022-12-18T19:19:10;-2.80;99.90
15288;DHT22;7745;48.708;9.026;2022-12-18T19:21:37;-2.70;99.90
15288;DHT22;7745;48.708;9.026;2022-12-18T19:24:05;-2.60;99.90
15288;DHT22;7745;48.708;9.026;2022-12-18T19:26:34;-2.90;99.90
15288;DHT22;7745;48.708;9.026;2022-12-18T19:29:03;-2.60;99.90
15288;DHT22;7745;48.708;9.026;2022-12-18T19:31:32;-3.00;99.90
15288;DHT22;7745;48.708;9.026;2022-12-18T19:34:03;-2.90;99.90
15288;DHT22;7745;48.708;9.026;2022-12-18T19:36:31;-2.90;99.90
15288;DHT22;7745;48.708;9.026;2022-12-18T19:39:00;-2.50;99.90
15288;DHT22;7745;48.708;9.026;2022-12-18T19:41:28;-2.70;99.90
15288;DHT22;7745;48.708;9.026;2022-12-18T19:43:58;-2.40;99.90
15288;DHT22;7745;48.708;9.026;2022-12-18T19:46:35;-2.80;99.90
15288;DHT22;7745;48.708;9.026;2022-12-18T19:49:04;-2.60;99.90
15288;DHT22;7745;48.708;9.026;2022-12-18T19:51:31;-2.60;99.90
15288;DHT22;7745;48.708;9.026;2022-12-18T19:53:59;-2.60;99.90
15288;DHT22;7745;48.708;9.026;2022-12-18T19:56:28;-2.70;99.90
15288;DHT22;7745;48.708;9.026;2022-12-18T19:58:56;-2.60;99.90
15288;DHT22;7745;48.708;9.026;2022-12-18T20:01:25;-2.20;99.90
15288;DHT22;7745;48.708;9.026;2022-12-18T20:03:54;-2.10;99.90
15288;DHT22;7745;48.708;9.026;2022-12-18T20:06:24;-2.60;99.90
15288;DHT22;7745;48.708;9.026;2022-12-18T20:08:52;-2.60;99.90
15288;DHT22;7745;48.708;9.026;2022-12-18T20:11:20;-2.60;99.90
15288;DHT22;7745;48.708;9.026;2022-12-18T20:13:47;-2.60;99.90
15288;DHT22;7745;48.708;9.026;2022-12-18T20:16:13;-2.30;99.90
15288;DHT22;7745;48.708;9.026;2022-12-18T20:18:42;-2.10;99.90
15288;DHT22;7745;48.708;9.026;2022-12-18T20:21:10;-2.00;99.90
15288;DHT22;7745;48.708;9.026;2022-12-18T20:23:39;-2.80;99.90
15288;DHT22;7745;48.708;9.026;2022-12-18T20:26:06;-2.30;99.90
15288;DHT22;7745;48.708;9.026;2022-12-18T20:28:33;-2.60;99.90
15288;DHT22;7745;48.708;9.026;2022-12-18T20:31:05;-2.40;99.90
15288;DHT22;7745;48.708;9.026;2022-12-18T20:33:33;-2.60;99.90
15288;DHT22;7745;48.708;9.026;2022-12-18T20:36:01;-2.30;99.90
15288;DHT22;7745;48.708;9.026;2022-12-18T20:38:31;-2.40;99.90
15288;DHT22;7745;48.708;9.026;2022-12-18T20:40:59;-2.30;99.90
15288;DHT22;7745;48.708;9.026;2022-12-18T20:43:27;-2.30;99.90
15288;DHT22;7745;48.708;9.026;2022-12-18T20:45:59;-2.30;99.90
15288;DHT22;7745;48.708;9.026;2022-12-18T20:48:27;-2.20;99.90
15288;DHT22;7745;48.708;9.026;2022-12-18T20:50:57;-2.50;99.90
15288;DHT22;7745;48.708;9.026;2022-12-18T20:53:24;-2.60;99.90
15288;DHT22;7745;48.708;9.026;2022-12-18T20:55:55;-2.10;99.90
15288;DHT22;7745;48.708;9.026;2022-12-18T20:58:22;-2.50;99.90
15288;DHT22;7745;48.708;9.026;2022-12-18T21:00:49;-2.20;99.90
15288;DHT22;7745;48.708;9.026;2022-12-18T21:03:18;-2.50;99.90
15288;DHT22;7745;48.708;9.026;2022-12-18T21:05:48;-2.20;99.90
15288;DHT22;7745;48.708;9.026;2022-12-18T21:08:17;-2.60;99.90
15288;DHT22;7745;48.708;9.026;2022-12-18T21:10:44;-2.40;99.90
15288;DHT22;7745;48.708;9.026;2022-12-18T21:13:13;-1.80;99.90
15288;DHT22;7745;48.708;9.026;2022-12-18T21:15:41;-2.40;99.90
15288;DHT22;7745;48.708;9.026;2022-12-18T21:18:09;-2.60;99.90
15288;DHT22;7745;48.708;9.026;2022-12-18T21:20:38;-2.10;99.90
15288;DHT22;7745;48.708;9.026;2022-12-18T21:23:05;-2.20;99.90
15288;DHT22;7745;48.708;9.026;2022-12-18T21:25:35;-2.00;99.90
15288;DHT22;7745;48.708;9.026;2022-12-18T21:28:02;-2.00;99.90
15288;DHT22;7745;48.708;9.026;2022-12-18T21:30:31;-2.40;99.90
15288;DHT22;7745;48.708;9.026;2022-12-18T21:32:57;-1.90;99.90
15288;DHT22;7745;48.708;9.026;2022-12-18T21:35:25;-2.00;99.90
15288;DHT22;7745;48.708;9.026;2022-12-18T21:37:51;-1.70;99.90
15288;DHT22;7745;48.708;9.026;2022-12-18T21:40:18;-2.30;99.90
15288;DHT22;7745;48.708;9.026;2022-12-18T21:42:45;-2.30;99.90
15288;DHT22;7745;48.708;9.026;2022-12-18T21:45:31;-2.30;99.90
15288;DHT22;7745;48.708;9.026;2022-12-18T21:47:58;-2.20;99.90
15288;DHT22;7745;48.708;9.026;2022-12-18T21:50:24;-1.90;99.90
15288;DHT22;7745;48.708;9.026;2022-12-18T21:52:51;-2.20;99.90
15288;DHT22;7745;48.708;9.026;2022-12-18T21:55:18;-2.20;99.90
15288;DHT22;7745;48.708;9.026;2022-12-18T21:57:45;-2.20;99.90
15288;DHT22;7745;48.708;9.026;2022-12-18T22:00:14;-1.70;99.90
15288;DHT22;7745;48.708;9.026;2022-12-18T22:02:42;-2.10;99.90
15288;DHT22;7745;48.708;9.026;2022-12-18T22:05:09;-1.80;99.90
15288;DHT22;7745;48.708;9.026;2022-12-18T22:07:36;-2.10;99.90
15288;DHT22;7745;48.708;9.026;2022-12-18T22:10:06;-2.10;99.90
15288;DHT22;7745;48.708;9.026;2022-12-18T22:12:33;-2.10;99.90
15288;DHT22;7745;48.708;9.026;2022-12-18T22:15:02;-2.50;99.90
15288;DHT22;7745;48.708;9.026;2022-12-18T22:17:29;-2.00;99.90
15288;DHT22;7745;48.708;9.026;2022-12-18T22:20:03;-2.00;99.90
15288;DHT22;7745;48.708;9.026;2022-12-18T22:22:30;-1.90;99.90
15288;DHT22;7745;48.708;9.026;2022-12-18T22:24:57;-1.80;99.90
15288;DHT22;7745;48.708;9.026;2022-12-18T22:27:24;-1.80;99.90
15288;DHT22;7745;48.708;9.026;2022-12-18T22:29:52;-1.90;99.90
15288;DHT22;7745;48.708;9.026;2022-12-18T22:32:31;-1.70;99.90
15288;DHT22;7745;48.708;9.026;2022-12-18T22:35:04;-1.80;99.90